sensor_id;sensor_type;location;lat;lon;timestamp;pressure;altitude;pressure_sealevel;temperature;humidity
30339;BME280;795;49.296;11.348;2023-04-16T00:01:40;96190.97;;;6.68;100.00
30339;BME280;795;49.296;11.348;2023-04-16T00:04:07;96197.59;;;6.64;100.00
30339;BME280;795;49.296;11.348;2023-04-16T00:06:34;96192.25;;;6.64;100.00
30339;BME280;795;49.296;11.348;2023-04-16T00:09:01;96169.91;;;6.48;100.00
30339;BME280;795;49.296;11.348;2023-04-16T00:11:28;96186.41;;;6.61;100.00
30339;BME280;795;49.296;11.348;2023-04-16T00:13:55;96119.97;;;6.23;100.00
30339;BME280;795;49.296;11.348;2023-04-16T00:16:22;96165.88;;;6.44;100.00
30339;BME280;795;49.296;11.348;2023-04-16T00:18:50;96163.59;;;6.49;100.00
30339;BME280;795;49.296;11.348;2023-04-16T00:21:17;96110.59;;;6.19;100.00
30339;BME280;795;49.296;11.348;2023-04-16T00:23:44;96087.88;;;5.97;100.00
30339;BME280;795;49.296;11.348;2023-04-16T00:26:11;96182.09;;;6.50;100.00
30339;BME280;795;49.296;11.348;2023-04-16T00:28:38;96126.06;;;6.15;100.00
30339;BME280;795;49.296;11.348;2023-04-16T00:31:05;96146.72;;;6.31;100.00
30339;BME280;795;49.296;11.348;2023-04-16T00:33:32;96193.00;;;6.57;100.00
30339;BME280;795;49.296;11.348;2023-04-16T00:35:59;96197.59;;;6.64;100.00
30339;BME280;795;49.296;11.348;2023-04-16T00:38:27;96131.47;;;6.23;100.00
30339;BME280;795;49.296;11.348;2023-04-16T00:40:56;96131.69;;;6.30;100.00
30339;BME280;795;49.296;11.348;2023-04-16T00:43:26;96193.84;;;6.57;100.00
30339;BME280;795;49.296;11.348;2023-04-16T00:45:56;96194.09;;;6.64;100.00
30339;BME280;795;49.296;11.348;2023-04-16T00:48:23;96132.31;;;6.24;100.00
30339;BME280;795;49.296;11.348;2023-04-16T00:50:54;96192.94;;;6.66;100.00
30339;BME280;795;49.296;11.348;2023-04-16T00:53:24;96188.75;;;6.64;100.00
30339;BME280;795;49.296;11.348;2023-04-16T00:55:53;96157.50;;;6.39;100.00
30339;BME280;795;49.296;11.348;2023-04-16T00:58:23;96115.81;;;6.11;100.00
30339;BME280;795;49.296;11.348;2023-04-16T01:00:50;96135.09;;;6.32;100.00
30339;BME280;795;49.296;11.348;2023-04-16T01:03:18;96198.16;;;6.68;100.00
30339;BME280;795;49.296;11.348;2023-04-16T01:05:45;96194.63;;;6.67;100.00
30339;BME280;795;49.296;11.348;2023-04-16T01:08:20;96138.19;;;6.27;100.00
30339;BME280;795;49.296;11.348;2023-04-16T01:10:47;96105.03;;;6.12;100.00
30339;BME280;795;49.296;11.348;2023-04-16T01:13:15;96199.13;;;6.67;100.00
30339;BME280;795;49.296;11.348;2023-04-16T01:15:42;96198.66;;;6.72;100.00
30339;BME280;795;49.296;11.348;2023-04-16T01:18:17;96191.34;;;6.74;100.00
30339;BME280;795;49.296;11.348;2023-04-16T01:20:47;96204.56;;;6.75;100.00
30339;BME280;795;49.296;11.348;2023-04-16T01:23:15;96199.13;;;6.67;100.00
30339;BME280;795;49.296;11.348;2023-04-16T01:25:45;96181.38;;;6.58;100.00
30339;BME280;795;49.296;11.348;2023-04-16T01:28:13;96101.81;;;6.09;100.00
30339;BME280;795;49.296;11.348;2023-04-16T01:30:40;96106.56;;;6.15;100.00
30339;BME280;795;49.296;11.348;2023-04-16T01:33:11;96211.72;;;6.75;100.00
30339;BME280;795;49.296;11.348;2023-04-16T01:35:40;96204.56;;;6.75;100.00
30339;BME280;795;49.296;11.348;2023-04-16T01:38:09;96180.91;;;6.62;100.00
30339;BME280;795;49.296;11.348;2023-04-16T01:40:37;96188.00;;;6.54;100.00
30339;BME280;795;49.296;11.348;2023-04-16T01:43:04;96190.28;;;6.66;100.00
30339;BME280;795;49.296;11.348;2023-04-16T01:45:33;96134.25;;;6.31;100.00
30339;BME280;795;49.296;11.348;2023-04-16T01:48:03;96112.28;;;6.20;100.00
30339;BME280;795;49.296;11.348;2023-04-16T01:50:31;96185.09;;;6.65;100.00
30339;BME280;795;49.296;11.348;2023-04-16T01:52:58;96208.50;;;6.71;100.00
30339;BME280;795;49.296;11.348;2023-04-16T01:55:25;96205.69;;;6.73;100.00
30339;BME280;795;49.296;11.348;2023-04-16T01:57:52;96204.69;;;6.74;100.00
30339;BME280;795;49.296;11.348;2023-04-16T02:00:19;96200.19;;;6.74;100.00
30339;BME280;795;49.296;11.348;2023-04-16T02:02:47;96179.16;;;6.71;100.00
30339;BME280;795;49.296;11.348;2023-04-16T02:05:15;96169.56;;;6.60;100.00
30339;BME280;795;49.296;11.348;2023-04-16T02:07:42;96125.84;;;6.26;100.00
30339;BME280;795;49.296;11.348;2023-04-16T02:10:09;96165.75;;;6.63;100.00
30339;BME280;795;49.296;11.348;2023-04-16T02:12:36;96203.66;;;6.84;100.00
30339;BME280;795;49.296;11.348;2023-04-16T02:15:04;96103.22;;;6.13;100.00
30339;BME280;795;49.296;11.348;2023-04-16T02:17:31;96185.41;;;6.62;100.00
30339;BME280;795;49.296;11.348;2023-04-16T02:19:58;96200.75;;;6.78;100.00
30339;BME280;795;49.296;11.348;2023-04-16T02:22:26;96207.81;;;6.69;100.00
30339;BME280;795;49.296;11.348;2023-04-16T02:24:53;96220.97;;;6.80;100.00
30339;BME280;795;49.296;11.348;2023-04-16T02:27:20;96208.75;;;6.78;100.00
30339;BME280;795;49.296;11.348;2023-04-16T02:29:47;96209.59;;;6.78;100.00
30339;BME280;795;49.296;11.348;2023-04-16T02:32:14;96159.41;;;6.46;100.00
30339;BME280;795;49.296;11.348;2023-04-16T02:34:41;96214.31;;;6.84;100.00
30339;BME280;795;49.296;11.348;2023-04-16T02:37:09;96220.97;;;6.80;100.00
30339;BME280;795;49.296;11.348;2023-04-16T02:39:36;96215.22;;;6.75;100.00
30339;BME280;795;49.296;11.348;2023-04-16T02:42:02;96186.81;;;6.56;100.00
30339;BME280;795;49.296;11.348;2023-04-16T02:44:29;96221.09;;;6.79;100.00
30339;BME280;795;49.296;11.348;2023-04-16T02:46:56;96214.63;;;6.81;100.00
30339;BME280;795;49.296;11.348;2023-04-16T02:49:23;96227.28;;;6.79;100.00
30339;BME280;795;49.296;11.348;2023-04-16T02:51:50;96152.28;;;6.37;100.00
30339;BME280;795;49.296;11.348;2023-04-16T02:54:17;96139.69;;;6.30;100.00
30339;BME280;795;49.296;11.348;2023-04-16T02:56:44;96226.44;;;6.79;100.00
30339;BME280;795;49.296;11.348;2023-04-16T02:59:11;96176.09;;;6.48;100.00
30339;BME280;795;49.296;11.348;2023-04-16T03:01:38;96116.00;;;6.09;100.00
30339;BME280;795;49.296;11.348;2023-04-16T03:04:05;96186.81;;;6.56;100.00
30339;BME280;795;49.296;11.348;2023-04-16T03:06:32;96241.91;;;6.75;100.00
30339;BME280;795;49.296;11.348;2023-04-16T03:08:59;96214.94;;;6.78;100.00
30339;BME280;795;49.296;11.348;2023-04-16T03:11:27;96130.34;;;6.26;100.00
30339;BME280;795;49.296;11.348;2023-04-16T03:13:54;96200.25;;;6.64;100.00
30339;BME280;795;49.296;11.348;2023-04-16T03:16:22;96193.00;;;6.57;100.00
30339;BME280;795;49.296;11.348;2023-04-16T03:18:51;96202.16;;;6.54;100.00
30339;BME280;795;49.296;11.348;2023-04-16T03:21:18;96242.69;;;6.85;100.00
30339;BME280;795;49.296;11.348;2023-04-16T03:23:46;96235.94;;;6.81;100.00
30339;BME280;795;49.296;11.348;2023-04-16T03:26:13;96183.00;;;6.41;100.00
30339;BME280;795;49.296;11.348;2023-04-16T03:28:41;96195.38;;;6.60;100.00
30339;BME280;795;49.296;11.348;2023-04-16T03:31:08;96185.69;;;6.59;100.00
30339;BME280;795;49.296;11.348;2023-04-16T03:33:35;96208.66;;;6.69;100.00
30339;BME280;795;49.296;11.348;2023-04-16T03:36:02;96137.03;;;6.30;100.00
30339;BME280;795;49.296;11.348;2023-04-16T03:38:29;96190.66;;;6.54;100.00
30339;BME280;795;49.296;11.348;2023-04-16T03:40:58;96214.94;;;6.78;100.00
30339;BME280;795;49.296;11.348;2023-04-16T03:43:26;96243.97;;;6.81;100.00
30339;BME280;795;49.296;11.348;2023-04-16T03:45:53;96184.22;;;6.47;100.00
30339;BME280;795;49.296;11.348;2023-04-16T03:48:20;96203.88;;;6.73;100.00
30339;BME280;795;49.296;11.348;2023-04-16T03:50:48;96222.03;;;6.87;100.00
30339;BME280;795;49.296;11.348;2023-04-16T03:53:15;96113.03;;;6.12;100.00
30339;BME280;795;49.296;11.348;2023-04-16T03:55:42;96248.88;;;7.03;100.00
30339;BME280;795;49.296;11.348;2023-04-16T03:58:10;96246.09;;;6.95;100.00
30339;BME280;795;49.296;11.348;2023-04-16T04:00:41;96156.63;;;6.38;100.00
30339;BME280;795;49.296;11.348;2023-04-16T04:03:10;96215.06;;;6.77;100.00
30339;BME280;795;49.296;11.348;2023-04-16T04:05:41;96228.63;;;6.83;100.00
30339;BME280;795;49.296;11.348;2023-04-16T04:08:09;96254.91;;;7.05;100.00
30339;BME280;795;49.296;11.348;2023-04-16T04:10:36;96238.44;;;6.92;100.00
30339;BME280;795;49.296;11.348;2023-04-16T04:13:05;96224.69;;;6.87;100.00
30339;BME280;795;49.296;11.348;2023-04-16T04:15:32;96174.34;;;6.57;100.00
30339;BME280;795;49.296;11.348;2023-04-16T04:17:59;96241.84;;;6.85;100.00
30339;BME280;795;49.296;11.348;2023-04-16T04:20:26;96221.03;;;6.71;100.00
30339;BME280;795;49.296;11.348;2023-04-16T04:22:53;96138.69;;;6.13;100.00
30339;BME280;795;49.296;11.348;2023-04-16T04:25:20;96246.72;;;6.89;100.00
30339;BME280;795;49.296;11.348;2023-04-16T04:27:47;96267.94;;;7.08;100.00
30339;BME280;795;49.296;11.348;2023-04-16T04:30:14;96264.88;;;7.03;100.00
30339;BME280;795;49.296;11.348;2023-04-16T04:32:41;96262.78;;;7.07;100.00
30339;BME280;795;49.296;11.348;2023-04-16T04:35:09;96176.09;;;6.48;100.00
30339;BME280;795;49.296;11.348;2023-04-16T04:37:36;96228.56;;;6.75;100.00
30339;BME280;795;49.296;11.348;2023-04-16T04:40:03;96274.97;;;7.09;100.00
30339;BME280;795;49.296;11.348;2023-04-16T04:42:30;96260.84;;;6.99;100.00
30339;BME280;795;49.296;11.348;2023-04-16T04:44:57;96288.56;;;7.16;100.00
30339;BME280;795;49.296;11.348;2023-04-16T04:47:24;96277.94;;;7.06;100.00
30339;BME280;795;49.296;11.348;2023-04-16T04:49:51;96203.16;;;6.71;100.00
30339;BME280;795;49.296;11.348;2023-04-16T04:52:18;96284.06;;;7.16;100.00
30339;BME280;795;49.296;11.348;2023-04-16T04:54:46;96267.22;;;6.89;100.00
30339;BME280;795;49.296;11.348;2023-04-16T04:57:13;96288.72;;;7.14;100.00
30339;BME280;795;49.296;11.348;2023-04-16T04:59:40;96284.81;;;7.09;100.00
30339;BME280;795;49.296;11.348;2023-04-16T05:02:06;96239.97;;;6.95;100.00
30339;BME280;795;49.296;11.348;2023-04-16T05:04:33;96182.34;;;6.57;100.00
30339;BME280;795;49.296;11.348;2023-04-16T05:07:00;96269.03;;;7.15;100.00
30339;BME280;795;49.296;11.348;2023-04-16T05:09:28;96249.19;;;7.18;100.00
30339;BME280;795;49.296;11.348;2023-04-16T05:11:55;96288.50;;;7.43;100.00
30339;BME280;795;49.296;11.348;2023-04-16T05:14:23;96240.13;;;7.11;100.00
30339;BME280;795;49.296;11.348;2023-04-16T05:16:50;96203.56;;;6.76;100.00
30339;BME280;795;49.296;11.348;2023-04-16T05:19:17;96259.03;;;7.17;100.00
30339;BME280;795;49.296;11.348;2023-04-16T05:21:44;96164.63;;;6.38;100.00
30339;BME280;795;49.296;11.348;2023-04-16T05:24:11;96239.78;;;6.96;100.00
30339;BME280;795;49.296;11.348;2023-04-16T05:26:40;96221.03;;;6.88;100.00
30339;BME280;795;49.296;11.348;2023-04-16T05:29:07;96277.88;;;7.33;100.00
30339;BME280;795;49.296;11.348;2023-04-16T05:31:35;96225.59;;;6.96;100.00
30339;BME280;795;49.296;11.348;2023-04-16T05:34:02;96302.16;;;7.58;100.00
30339;BME280;795;49.296;11.348;2023-04-16T05:36:28;96277.25;;;7.40;100.00
30339;BME280;795;49.296;11.348;2023-04-16T05:38:55;96275.66;;;7.47;100.00
30339;BME280;795;49.296;11.348;2023-04-16T05:41:22;96240.63;;;7.32;100.00
30339;BME280;795;49.296;11.348;2023-04-16T05:43:49;96243.84;;;7.35;100.00
30339;BME280;795;49.296;11.348;2023-04-16T05:46:16;96303.34;;;7.81;100.00
30339;BME280;795;49.296;11.348;2023-04-16T05:48:43;96316.09;;;7.87;100.00
30339;BME280;795;49.296;11.348;2023-04-16T05:51:10;96170.63;;;7.03;100.00
30339;BME280;795;49.296;11.348;2023-04-16T05:53:37;96316.72;;;7.81;100.00
30339;BME280;795;49.296;11.348;2023-04-16T05:56:06;96261.53;;;7.36;100.00
30339;BME280;795;49.296;11.348;2023-04-16T05:58:33;96203.97;;;6.99;100.00
30339;BME280;795;49.296;11.348;2023-04-16T06:01:00;96303.75;;;7.51;100.00
30339;BME280;795;49.296;11.348;2023-04-16T06:03:27;96257.50;;;7.15;100.00
30339;BME280;795;49.296;11.348;2023-04-16T06:05:54;96270.47;;;7.27;100.00
30339;BME280;795;49.296;11.348;2023-04-16T06:08:21;96325.09;;;7.68;100.00
30339;BME280;795;49.296;11.348;2023-04-16T06:10:48;96329.47;;;7.69;100.00
30339;BME280;795;49.296;11.348;2023-04-16T06:13:15;96280.31;;;7.27;100.00
30339;BME280;795;49.296;11.348;2023-04-16T06:15:42;96303.97;;;7.40;100.00
30339;BME280;795;49.296;11.348;2023-04-16T06:18:09;96317.63;;;7.54;100.00
30339;BME280;795;49.296;11.348;2023-04-16T06:20:36;96342.44;;;7.64;100.00
30339;BME280;795;49.296;11.348;2023-04-16T06:23:03;96313.13;;;7.55;100.00
30339;BME280;795;49.296;11.348;2023-04-16T06:25:31;96300.16;;;7.60;100.00
30339;BME280;795;49.296;11.348;2023-04-16T06:27:58;96332.44;;;7.84;100.00
30339;BME280;795;49.296;11.348;2023-04-16T06:30:25;96309.25;;;7.84;100.00
30339;BME280;795;49.296;11.348;2023-04-16T06:32:52;96252.00;;;7.52;100.00
30339;BME280;795;49.296;11.348;2023-04-16T06:35:19;96337.13;;;8.08;100.00
30339;BME280;795;49.296;11.348;2023-04-16T06:37:46;96216.28;;;7.53;100.00
30339;BME280;795;49.296;11.348;2023-04-16T06:40:13;96300.97;;;7.95;100.00
30339;BME280;795;49.296;11.348;2023-04-16T06:42:41;96319.16;;;8.18;100.00
30339;BME280;795;49.296;11.348;2023-04-16T06:45:12;96307.72;;;8.08;100.00
30339;BME280;795;49.296;11.348;2023-04-16T06:47:39;96259.66;;;7.90;100.00
30339;BME280;795;49.296;11.348;2023-04-16T06:50:07;96342.78;;;8.48;100.00
30339;BME280;795;49.296;11.348;2023-04-16T06:52:34;96290.78;;;8.42;100.00
30339;BME280;795;49.296;11.348;2023-04-16T06:55:01;96314.28;;;8.56;100.00
30339;BME280;795;49.296;11.348;2023-04-16T06:57:28;96308.19;;;8.46;100.00
30339;BME280;795;49.296;11.348;2023-04-16T06:59:55;96303.47;;;8.40;100.00
30339;BME280;795;49.296;11.348;2023-04-16T07:02:23;96263.91;;;8.00;100.00
30339;BME280;795;49.296;11.348;2023-04-16T07:04:50;96340.34;;;8.54;100.00
30339;BME280;795;49.296;11.348;2023-04-16T07:07:18;96328.56;;;8.73;100.00
30339;BME280;795;49.296;11.348;2023-04-16T07:09:45;96327.34;;;8.59;100.00
30339;BME280;795;49.296;11.348;2023-04-16T07:12:12;96243.81;;;8.22;100.00
30339;BME280;795;49.296;11.348;2023-04-16T07:14:40;96179.69;;;7.96;100.00
30339;BME280;795;49.296;11.348;2023-04-16T07:17:07;96275.41;;;8.44;100.00
30339;BME280;795;49.296;11.348;2023-04-16T07:19:34;96316.09;;;8.90;100.00
30339;BME280;795;49.296;11.348;2023-04-16T07:22:01;96349.03;;;9.24;100.00
30339;BME280;795;49.296;11.348;2023-04-16T07:24:29;96316.19;;;9.14;100.00
30339;BME280;795;49.296;11.348;2023-04-16T07:26:56;96330.56;;;9.05;100.00
30339;BME280;795;49.296;11.348;2023-04-16T07:29:23;96204.38;;;8.16;100.00
30339;BME280;795;49.296;11.348;2023-04-16T07:31:50;96345.28;;;9.01;100.00
30339;BME280;795;49.296;11.348;2023-04-16T07:34:17;96150.28;;;7.96;100.00
30339;BME280;795;49.296;11.348;2023-04-16T07:36:44;96339.53;;;9.38;100.00
30339;BME280;795;49.296;11.348;2023-04-16T07:39:11;96318.50;;;9.09;100.00
30339;BME280;795;49.296;11.348;2023-04-16T07:41:39;96316.19;;;9.06;100.00
30339;BME280;795;49.296;11.348;2023-04-16T07:44:07;96304.41;;;8.91;100.00
30339;BME280;795;49.296;11.348;2023-04-16T07:46:34;96289.09;;;8.75;100.00
30339;BME280;795;49.296;11.348;2023-04-16T07:49:12;96344.78;;;9.05;100.00
30339;BME280;795;49.296;11.348;2023-04-16T07:51:39;96353.38;;;9.17;100.00
30339;BME280;795;49.296;11.348;2023-04-16T07:54:06;96330.31;;;9.32;100.00
30339;BME280;795;49.296;11.348;2023-04-16T07:56:33;96307.88;;;9.25;100.00
30339;BME280;795;49.296;11.348;2023-04-16T07:59:00;96309.59;;;9.50;100.00
30339;BME280;795;49.296;11.348;2023-04-16T08:03:33;96261.47;;;9.16;100.00
30339;BME280;795;49.296;11.348;2023-04-16T08:06:00;96298.38;;;9.47;100.00
30339;BME280;795;49.296;11.348;2023-04-16T08:08:27;96281.78;;;9.51;100.00
30339;BME280;795;49.296;11.348;2023-04-16T08:10:55;96351.91;;;10.13;100.00
30339;BME280;795;49.296;11.348;2023-04-16T08:13:23;96277.63;;;9.89;100.00
30339;BME280;795;49.296;11.348;2023-04-16T08:15:50;96297.75;;;9.69;100.00
30339;BME280;795;49.296;11.348;2023-04-16T08:18:18;96358.59;;;10.33;100.00
30339;BME280;795;49.296;11.348;2023-04-16T08:20:45;96271.94;;;10.00;100.00
30339;BME280;795;49.296;11.348;2023-04-16T08:23:12;96350.41;;;10.97;100.00
30339;BME280;795;49.296;11.348;2023-04-16T08:25:39;96310.19;;;10.89;100.00
30339;BME280;795;49.296;11.348;2023-04-16T08:28:06;96307.88;;;11.17;100.00
30339;BME280;795;49.296;11.348;2023-04-16T08:30:33;96307.06;;;11.16;100.00
30339;BME280;795;49.296;11.348;2023-04-16T08:33:00;96342.16;;;11.46;100.00
30339;BME280;795;49.296;11.348;2023-04-16T08:35:28;96334.09;;;11.46;100.00
30339;BME280;795;49.296;11.348;2023-04-16T08:37:55;96361.38;;;11.65;100.00
30339;BME280;795;49.296;11.348;2023-04-16T08:40:27;96354.31;;;11.72;100.00
30339;BME280;795;49.296;11.348;2023-04-16T08:43:01;96255.81;;;10.87;100.00
30339;BME280;795;49.296;11.348;2023-04-16T08:45:33;96315.28;;;11.15;100.00
30339;BME280;795;49.296;11.348;2023-04-16T08:48:04;96317.97;;;11.15;100.00
30339;BME280;795;49.296;11.348;2023-04-16T08:50:33;96367.09;;;11.31;100.00
30339;BME280;795;49.296;11.348;2023-04-16T08:53:06;96367.69;;;11.03;100.00
30339;BME280;795;49.296;11.348;2023-04-16T08:55:47;96310.13;;;10.97;100.00
30339;BME280;795;49.296;11.348;2023-04-16T08:58:21;96327.53;;;11.09;100.00
30339;BME280;795;49.296;11.348;2023-04-16T09:00:49;96327.16;;;10.82;100.00
30339;BME280;795;49.296;11.348;2023-04-16T09:03:17;96365.41;;;10.92;100.00
30339;BME280;795;49.296;11.348;2023-04-16T09:05:49;96315.28;;;10.68;100.00
30339;BME280;795;49.296;11.348;2023-04-16T09:08:17;96375.53;;;11.20;100.00
30339;BME280;795;49.296;11.348;2023-04-16T09:10:44;96338.03;;;10.96;100.00
30339;BME280;795;49.296;11.348;2023-04-16T09:13:12;96337.28;;;11.10;100.00
30339;BME280;795;49.296;11.348;2023-04-16T09:15:43;96309.38;;;11.19;100.00
30339;BME280;795;49.296;11.348;2023-04-16T09:18:11;96383.75;;;11.58;100.00
30339;BME280;795;49.296;11.348;2023-04-16T09:20:38;96386.28;;;11.59;100.00
30339;BME280;795;49.296;11.348;2023-04-16T09:23:05;96355.72;;;11.21;100.00
30339;BME280;795;49.296;11.348;2023-04-16T09:25:33;96280.47;;;10.44;100.00
30339;BME280;795;49.296;11.348;2023-04-16T09:28:00;96279.75;;;10.42;100.00
30339;BME280;795;49.296;11.348;2023-04-16T09:30:27;96396.72;;;11.07;100.00
30339;BME280;795;49.296;11.348;2023-04-16T09:33:20;96404.84;;;10.99;100.00
30339;BME280;795;49.296;11.348;2023-04-16T09:35:53;96365.28;;;10.69;100.00
30339;BME280;795;49.296;11.348;2023-04-16T09:38:20;96383.31;;;11.07;100.00
30339;BME280;795;49.296;11.348;2023-04-16T09:41:05;96392.41;;;10.90;100.00
30339;BME280;795;49.296;11.348;2023-04-16T09:43:33;96405.63;;;11.08;100.00
30339;BME280;795;49.296;11.348;2023-04-16T09:46:03;96369.47;;;10.80;100.00
30339;BME280;795;49.296;11.348;2023-04-16T09:48:34;96312.66;;;10.44;100.00
30339;BME280;795;49.296;11.348;2023-04-16T09:51:05;96409.22;;;10.76;100.00
30339;BME280;795;49.296;11.348;2023-04-16T09:53:32;96410.91;;;10.77;100.00
30339;BME280;795;49.296;11.348;2023-04-16T09:56:05;96328.56;;;10.53;100.00
30339;BME280;795;49.296;11.348;2023-04-16T09:58:36;96355.19;;;10.87;100.00
30339;BME280;795;49.296;11.348;2023-04-16T10:01:11;96347.13;;;10.79;100.00
30339;BME280;795;49.296;11.348;2023-04-16T10:03:39;96356.81;;;10.96;100.00
30339;BME280;795;49.296;11.348;2023-04-16T10:06:20;96370.25;;;10.88;100.00
30339;BME280;795;49.296;11.348;2023-04-16T10:08:54;96426.91;;;11.25;100.00
30339;BME280;795;49.296;11.348;2023-04-16T10:11:23;96385.97;;;11.15;100.00
30339;BME280;795;49.296;11.348;2023-04-16T10:13:52;96321.06;;;10.96;100.00
30339;BME280;795;49.296;11.348;2023-04-16T10:16:21;96428.88;;;11.86;100.00
30339;BME280;795;49.296;11.348;2023-04-16T10:18:48;96398.88;;;11.67;100.00
30339;BME280;795;49.296;11.348;2023-04-16T10:21:15;96347.47;;;11.62;100.00
30339;BME280;795;49.296;11.348;2023-04-16T10:23:43;96432.19;;;12.19;100.00
30339;BME280;795;49.296;11.348;2023-04-16T10:26:10;96399.44;;;12.16;100.00
30339;BME280;795;49.296;11.348;2023-04-16T10:28:39;96332.81;;;11.95;100.00
30339;BME280;795;49.296;11.348;2023-04-16T10:31:08;96287.31;;;11.85;98.38
30339;BME280;795;49.296;11.348;2023-04-16T10:33:40;96434.97;;;12.94;99.78
30339;BME280;795;49.296;11.348;2023-04-16T10:36:22;96442.34;;;13.00;99.52
30339;BME280;795;49.296;11.348;2023-04-16T10:38:52;96398.41;;;12.77;96.78
30339;BME280;795;49.296;11.348;2023-04-16T10:41:25;96400.81;;;12.57;100.00
30339;BME280;795;49.296;11.348;2023-04-16T10:44:04;96436.31;;;12.75;99.01
30339;BME280;795;49.296;11.348;2023-04-16T10:46:39;96415.56;;;12.38;100.00
30339;BME280;795;49.296;11.348;2023-04-16T10:49:22;96425.09;;;12.49;100.00
30339;BME280;795;49.296;11.348;2023-04-16T10:52:12;96363.78;;;12.14;100.00
30339;BME280;795;49.296;11.348;2023-04-16T10:54:40;96440.28;;;12.64;99.61
30339;BME280;795;49.296;11.348;2023-04-16T10:57:18;96444.56;;;12.59;100.00
30339;BME280;795;49.296;11.348;2023-04-16T10:59:47;96372.94;;;12.27;99.50
30339;BME280;795;49.296;11.348;2023-04-16T11:02:17;96372.88;;;12.13;100.00
30339;BME280;795;49.296;11.348;2023-04-16T11:04:47;96389.63;;;12.00;100.00
30339;BME280;795;49.296;11.348;2023-04-16T11:07:33;96425.00;;;12.42;100.00
30339;BME280;795;49.296;11.348;2023-04-16T11:10:11;96410.19;;;12.38;100.00
30339;BME280;795;49.296;11.348;2023-04-16T11:12:47;96382.22;;;12.25;100.00
30339;BME280;795;49.296;11.348;2023-04-16T11:15:16;96425.59;;;12.67;100.00
30339;BME280;795;49.296;11.348;2023-04-16T11:17:50;96448.72;;;12.99;100.00
30339;BME280;795;49.296;11.348;2023-04-16T11:20:27;96428.72;;;13.16;98.24
30339;BME280;795;49.296;11.348;2023-04-16T11:22:56;96446.31;;;13.41;96.18
30339;BME280;795;49.296;11.348;2023-04-16T11:25:27;96457.19;;;13.48;97.84
30339;BME280;795;49.296;11.348;2023-04-16T11:28:01;96398.69;;;13.34;96.19
30339;BME280;795;49.296;11.348;2023-04-16T11:30:36;96465.00;;;13.72;94.07
30339;BME280;795;49.296;11.348;2023-04-16T11:33:07;96444.63;;;13.69;93.24
30339;BME280;795;49.296;11.348;2023-04-16T11:35:34;96453.31;;;14.01;92.02
30339;BME280;795;49.296;11.348;2023-04-16T11:38:01;96322.72;;;13.01;90.35
30339;BME280;795;49.296;11.348;2023-04-16T11:40:30;96435.91;;;13.38;93.70
30339;BME280;795;49.296;11.348;2023-04-16T11:43:16;96426.41;;;13.42;94.82
30339;BME280;795;49.296;11.348;2023-04-16T11:46:04;96469.66;;;13.63;93.18
30339;BME280;795;49.296;11.348;2023-04-16T11:48:54;96469.47;;;13.50;92.02
30339;BME280;795;49.296;11.348;2023-04-16T11:51:22;96437.84;;;13.44;94.10
30339;BME280;795;49.296;11.348;2023-04-16T11:53:53;96392.66;;;13.32;91.81
30339;BME280;795;49.296;11.348;2023-04-16T11:56:35;96455.94;;;13.94;90.94
30339;BME280;795;49.296;11.348;2023-04-16T12:01:52;96464.88;;;13.94;89.07
30339;BME280;795;49.296;11.348;2023-04-16T12:04:25;96427.22;;;13.72;91.29
30339;BME280;795;49.296;11.348;2023-04-16T12:07:13;96412.84;;;14.01;90.37
30339;BME280;795;49.296;11.348;2023-04-16T12:09:42;96405.13;;;13.97;87.94
30339;BME280;795;49.296;11.348;2023-04-16T12:12:30;96442.50;;;14.15;89.70
30339;BME280;795;49.296;11.348;2023-04-16T12:15:03;96378.59;;;13.65;89.04
30339;BME280;795;49.296;11.348;2023-04-16T12:17:36;96406.44;;;13.37;88.08
30339;BME280;795;49.296;11.348;2023-04-16T12:20:14;96389.03;;;13.10;89.50
30339;BME280;795;49.296;11.348;2023-04-16T12:22:47;96474.22;;;13.48;90.20
30339;BME280;795;49.296;11.348;2023-04-16T12:25:17;96388.22;;;12.87;91.46
30339;BME280;795;49.296;11.348;2023-04-16T12:27:54;96462.16;;;13.07;93.88
30339;BME280;795;49.296;11.348;2023-04-16T12:30:24;96467.00;;;12.89;98.14
30339;BME280;795;49.296;11.348;2023-04-16T12:33:18;96400.31;;;12.53;98.93
30339;BME280;795;49.296;11.348;2023-04-16T12:35:45;96366.84;;;12.11;95.81
30339;BME280;795;49.296;11.348;2023-04-16T12:38:12;96394.50;;;11.74;100.00
30339;BME280;795;49.296;11.348;2023-04-16T12:40:41;96421.94;;;11.53;100.00
30339;BME280;795;49.296;11.348;2023-04-16T12:43:09;96479.03;;;11.63;100.00
30339;BME280;795;49.296;11.348;2023-04-16T12:45:38;96483.63;;;11.47;100.00
30339;BME280;795;49.296;11.348;2023-04-16T12:48:05;96481.19;;;11.05;100.00
30339;BME280;795;49.296;11.348;2023-04-16T12:50:33;96444.97;;;10.68;100.00
30339;BME280;795;49.296;11.348;2023-04-16T12:53:00;96458.06;;;10.80;100.00
30339;BME280;795;49.296;11.348;2023-04-16T12:55:27;96482.91;;;10.82;100.00
30339;BME280;795;49.296;11.348;2023-04-16T12:57:55;96439.09;;;10.33;100.00
30339;BME280;795;49.296;11.348;2023-04-16T13:00:22;96462.44;;;10.48;100.00
30339;BME280;795;49.296;11.348;2023-04-16T13:02:49;96451.47;;;10.10;100.00
30339;BME280;795;49.296;11.348;2023-04-16T13:05:16;96439.44;;;10.22;100.00
30339;BME280;795;49.296;11.348;2023-04-16T13:07:44;96461.59;;;10.48;100.00
30339;BME280;795;49.296;11.348;2023-04-16T13:10:12;96438.28;;;10.40;100.00
30339;BME280;795;49.296;11.348;2023-04-16T13:12:39;96462.59;;;10.71;100.00
30339;BME280;795;49.296;11.348;2023-04-16T13:15:07;96487.59;;;10.96;100.00
30339;BME280;795;49.296;11.348;2023-04-16T13:17:35;96488.91;;;11.16;100.00
30339;BME280;795;49.296;11.348;2023-04-16T13:20:02;96485.53;;;11.22;100.00
30339;BME280;795;49.296;11.348;2023-04-16T13:22:29;96434.56;;;10.90;100.00